createdAt,value
2023-05-09T00:01:34.339Z,101915.50
2023-05-09T00:04:00.617Z,101914.47
2023-05-09T00:06:26.838Z,101913.84
2023-05-09T00:08:53.140Z,101912.00
2023-05-09T00:11:19.409Z,101909.50
2023-05-09T00:13:45.733Z,101912.81
2023-05-09T00:16:12.022Z,101901.63
2023-05-09T00:18:38.300Z,101901.03
2023-05-09T00:21:04.551Z,101903.94
2023-05-09T00:23:30.992Z,101899.97
2023-05-09T00:25:57.218Z,101900.19
2023-05-09T00:28:23.482Z,101901.81
2023-05-09T00:30:49.718Z,101893.75
2023-05-09T00:33:15.972Z,101895.84
2023-05-09T00:35:42.489Z,101894.19
2023-05-09T00:38:08.802Z,101893.56
2023-05-09T00:40:35.176Z,101898.72
2023-05-09T00:43:01.466Z,101883.84
2023-05-09T00:45:27.735Z,101889.81
2023-05-09T00:47:54.047Z,101880.50
2023-05-09T00:50:20.386Z,101881.94
2023-05-09T00:52:46.610Z,101875.13
2023-05-09T00:55:13.003Z,101872.03
2023-05-09T00:57:39.427Z,101864.34
2023-05-09T01:00:05.668Z,101862.28
2023-05-09T01:02:31.979Z,101856.91
2023-05-09T01:04:58.358Z,101854.84
2023-05-09T01:07:24.610Z,101856.50
2023-05-09T01:09:50.895Z,101852.13
2023-05-09T01:12:17.122Z,101846.94
2023-05-09T01:14:43.375Z,101855.03
2023-05-09T01:17:09.642Z,101857.72
2023-05-09T01:19:35.897Z,101851.50
2023-05-09T01:22:02.201Z,101855.00
2023-05-09T01:24:28.432Z,101845.31
2023-05-09T01:26:54.683Z,101849.63
2023-05-09T01:29:21.018Z,101857.09
2023-05-09T01:31:47.468Z,101863.09
2023-05-09T01:34:13.891Z,101854.44
2023-05-09T01:36:40.123Z,101849.03
2023-05-09T01:39:06.445Z,101848.00
2023-05-09T01:41:32.754Z,101846.16
2023-05-09T01:43:58.996Z,101842.22
2023-05-09T01:46:25.336Z,101837.44
2023-05-09T01:48:51.609Z,101839.13
2023-05-09T01:51:17.906Z,101830.00
2023-05-09T01:53:44.148Z,101836.84
2023-05-09T01:56:10.409Z,101844.69
2023-05-09T01:58:36.648Z,101832.50
2023-05-09T02:01:03.095Z,101830.81
2023-05-09T02:03:29.620Z,101833.28
2023-05-09T02:05:55.949Z,101831.03
2023-05-09T02:08:22.325Z,101831.63
2023-05-09T02:10:48.859Z,101823.78
2023-05-09T02:13:15.225Z,101832.03
2023-05-09T02:15:41.577Z,101831.03
2023-05-09T02:18:07.844Z,101835.97
2023-05-09T02:20:34.060Z,101831.03
2023-05-09T02:23:00.328Z,101830.41
2023-05-09T02:25:26.557Z,101824.59
2023-05-09T02:27:52.786Z,101837.22
2023-05-09T02:30:19.058Z,101831.63
2023-05-09T02:32:45.371Z,101823.78
2023-05-09T02:35:11.716Z,101822.53
2023-05-09T02:37:37.983Z,101822.13
2023-05-09T02:40:04.250Z,101824.81
2023-05-09T02:42:30.557Z,101817.59
2023-05-09T02:44:56.990Z,101825.66
2023-05-09T02:47:23.301Z,101823.97
2023-05-09T02:49:49.544Z,101827.31
2023-05-09T02:52:15.818Z,101826.66
2023-05-09T02:54:42.047Z,101825.44
2023-05-09T02:57:08.367Z,101823.16
2023-05-09T02:59:34.595Z,101825.03
2023-05-09T03:02:00.890Z,101815.09
2023-05-09T03:04:27.138Z,101821.28
2023-05-09T03:06:53.463Z,101822.72
2023-05-09T03:09:19.715Z,101812.59
2023-05-09T03:11:45.957Z,101815.28
2023-05-09T03:14:12.213Z,101822.53
2023-05-09T03:16:38.472Z,101817.34
2023-05-09T03:19:04.747Z,101816.53
2023-05-09T03:21:31.124Z,101815.09
2023-05-09T03:23:57.369Z,101814.44
2023-05-09T03:26:23.580Z,101806.81
2023-05-09T03:28:49.933Z,101801.84
2023-05-09T03:31:16.357Z,101798.09
2023-05-09T03:33:42.668Z,101802.25
2023-05-09T03:36:09.008Z,101800.19
2023-05-09T03:38:35.264Z,101807.22
2023-05-09T03:41:01.565Z,101807.63
2023-05-09T03:43:27.795Z,101809.28
2023-05-09T03:45:54.050Z,101811.16
2023-05-09T03:48:20.309Z,101818.38
2023-05-09T03:50:46.625Z,101815.50
2023-05-09T03:53:12.898Z,101823.34
2023-05-09T03:55:39.167Z,101830.38
2023-05-09T03:58:05.430Z,101828.53
2023-05-09T04:00:31.702Z,101821.28
2023-05-09T04:02:58.013Z,101825.84
2023-05-09T04:05:24.342Z,101824.16
2023-05-09T04:07:50.642Z,101815.88
2023-05-09T04:10:16.870Z,101825.41
2023-05-09T04:12:43.105Z,101827.69
2023-05-09T04:15:09.423Z,101826.25
2023-05-09T04:17:35.806Z,101832.88
2023-05-09T04:20:02.294Z,101831.19
2023-05-09T04:22:28.690Z,101830.53
2023-05-09T04:24:55.409Z,101830.53
2023-05-09T04:27:21.644Z,101833.88
2023-05-09T04:29:47.909Z,101829.50
2023-05-09T04:32:14.170Z,101830.34
2023-05-09T04:34:40.437Z,101831.38
2023-05-09T04:37:06.682Z,101829.72
2023-05-09T04:39:33.047Z,101821.66
2023-05-09T04:41:59.262Z,101834.06
2023-05-09T04:44:25.520Z,101831.19
2023-05-09T04:46:51.749Z,101837.78
2023-05-09T04:49:17.978Z,101836.13
2023-05-09T04:51:44.218Z,101829.09
2023-05-09T04:54:10.440Z,101827.44
2023-05-09T04:56:37.074Z,101829.50
2023-05-09T04:59:03.505Z,101833.88
2023-05-09T05:01:29.792Z,101824.34
2023-05-09T05:03:56.049Z,101824.97
2023-05-09T05:06:22.316Z,101823.31
2023-05-09T05:08:48.598Z,101821.44
2023-05-09T05:11:15.120Z,101826.00
2023-05-09T05:13:41.367Z,101833.44
2023-05-09T05:16:07.696Z,101827.66
2023-05-09T05:18:33.998Z,101828.88
2023-05-09T05:21:00.302Z,101826.00
2023-05-09T05:23:26.807Z,101816.28
2023-05-09T05:25:53.199Z,101807.97
2023-05-09T05:28:19.450Z,101812.34
2023-05-09T05:30:45.693Z,101813.16
2023-05-09T05:33:11.945Z,101813.59
2023-05-09T05:35:38.287Z,101812.75
2023-05-09T05:38:04.521Z,101814.03
2023-05-09T05:40:30.777Z,101800.53
2023-05-09T05:42:56.989Z,101796.38
2023-05-09T05:45:23.239Z,101795.75
2023-05-09T05:47:49.592Z,101793.50
2023-05-09T05:50:16.540Z,101795.97
2023-05-09T05:52:43.023Z,101786.88
2023-05-09T05:55:09.319Z,101785.44
2023-05-09T05:57:35.684Z,101780.66
2023-05-09T06:00:01.958Z,101781.72
2023-05-09T06:02:28.828Z,101780.25
2023-05-09T06:04:56.179Z,101786.69
2023-05-09T06:07:22.572Z,101784.00
2023-05-09T06:09:49.608Z,101789.56
2023-05-09T06:12:15.849Z,101789.13
2023-05-09T06:14:42.063Z,101770.94
2023-05-09T06:17:08.404Z,101776.31
2023-05-09T06:19:34.697Z,101762.25
2023-05-09T06:22:00.937Z,101769.28
2023-05-09T06:24:35.625Z,101765.75
2023-05-09T06:27:02.534Z,101761.63
2023-05-09T06:29:28.765Z,101758.94
2023-05-09T06:31:55.072Z,101767.00
2023-05-09T06:34:21.363Z,101756.25
2023-05-09T06:36:47.661Z,101758.94
2023-05-09T06:39:14.003Z,101757.50
2023-05-09T06:41:40.254Z,101753.75
2023-05-09T06:44:06.475Z,101755.00
2023-05-09T06:46:32.747Z,101751.66
2023-05-09T06:48:59.129Z,101755.41
2023-05-09T06:51:25.358Z,101752.09
2023-05-09T06:53:51.612Z,101749.41
2023-05-09T06:56:19.924Z,101750.84
2023-05-09T06:58:46.333Z,101753.75
2023-05-09T07:01:12.577Z,101732.03
2023-05-09T07:03:38.835Z,101742.78
2023-05-09T07:06:05.091Z,101734.72
2023-05-09T07:08:31.364Z,101732.03
2023-05-09T07:10:57.597Z,101726.25
2023-05-09T07:13:23.904Z,101727.25
2023-05-09T07:15:50.213Z,101723.97
2023-05-09T07:18:16.466Z,101716.50
2023-05-09T07:20:42.809Z,101713.63
2023-05-09T07:23:09.136Z,101710.13
2023-05-09T07:25:35.380Z,101712.81
2023-05-09T07:28:01.629Z,101711.97
2023-05-09T07:30:27.907Z,101702.84
2023-05-09T07:32:54.215Z,101707.44
2023-05-09T07:35:20.485Z,101699.34
2023-05-09T07:37:46.817Z,101690.44
2023-05-09T07:40:13.446Z,101695.63
2023-05-09T07:42:39.852Z,101677.22
2023-05-09T07:45:06.363Z,101670.19
2023-05-09T07:47:32.611Z,101683.41
2023-05-09T07:49:58.867Z,101672.66
2023-05-09T07:52:25.131Z,101661.72
2023-05-09T07:54:51.446Z,101667.09
2023-05-09T07:57:18.021Z,101661.91
2023-05-09T07:59:44.357Z,101643.28
2023-05-09T08:02:10.697Z,101645.78
2023-05-09T08:04:37.011Z,101652.59
2023-05-09T08:07:03.662Z,101642.03
2023-05-09T08:09:30.004Z,101637.50
2023-05-09T08:11:56.301Z,101634.81
2023-05-09T08:14:22.534Z,101637.50
2023-05-09T08:16:48.772Z,101639.16
2023-05-09T08:19:15.045Z,101637.06
2023-05-09T08:21:41.389Z,101636.25
2023-05-09T08:24:07.786Z,101631.69
2023-05-09T08:26:34.077Z,101631.69
2023-05-09T08:29:00.305Z,101627.34
2023-05-09T08:31:26.651Z,101625.50
2023-05-09T08:33:52.982Z,101623.63
2023-05-09T08:36:19.306Z,101614.75
2023-05-09T08:38:45.537Z,101599.84
2023-05-09T08:41:11.931Z,101609.56
2023-05-09T08:43:38.164Z,101599.63
2023-05-09T08:46:04.567Z,101600.66
2023-05-09T08:48:30.877Z,101600.66
2023-05-09T08:50:57.211Z,101596.94
2023-05-09T08:53:23.506Z,101598.59
2023-05-09T08:55:49.762Z,101599.00
2023-05-09T08:58:16.003Z,101597.38
2023-05-09T09:00:42.257Z,101586.41
2023-05-09T09:03:08.556Z,101582.03
2023-05-09T09:08:06.068Z,101589.31
2023-05-09T09:10:32.323Z,101579.16
2023-05-09T09:12:58.711Z,101585.78
2023-05-09T09:15:25.065Z,101587.63
2023-05-09T09:17:51.408Z,101591.78
2023-05-09T09:20:17.765Z,101575.66
2023-05-09T09:22:44.050Z,101568.59
2023-05-09T09:25:10.722Z,101564.25
2023-05-09T09:27:37.148Z,101555.78
2023-05-09T09:30:03.371Z,101556.19
2023-05-09T09:32:29.642Z,101552.66
2023-05-09T09:34:55.916Z,101559.09
2023-05-09T09:37:22.172Z,101559.94
2023-05-09T09:39:48.384Z,101533.63
2023-05-09T09:42:14.736Z,101553.50
2023-05-09T09:44:41.036Z,101541.91
2023-05-09T09:47:07.253Z,101538.41
2023-05-09T09:49:33.519Z,101540.91
2023-05-09T09:51:59.781Z,101532.63
2023-05-09T09:54:26.080Z,101539.00
2023-05-09T09:56:52.332Z,101534.69
2023-05-09T09:59:18.564Z,101533.63
2023-05-09T10:01:44.863Z,101512.13
2023-05-09T10:04:11.129Z,101517.50
2023-05-09T10:06:37.403Z,101499.53
2023-05-09T10:09:03.658Z,101506.53
2023-05-09T10:11:29.935Z,101504.69
2023-05-09T10:13:56.256Z,101484.44
2023-05-09T10:16:35.699Z,101481.53
2023-05-09T10:19:06.430Z,101478.84
2023-05-09T10:21:32.738Z,101478.00
2023-05-09T10:23:59.049Z,101468.88
2023-05-09T10:26:25.264Z,101480.69
2023-05-09T10:28:51.514Z,101471.78
2023-05-09T10:31:17.839Z,101465.41
2023-05-09T10:33:44.094Z,101467.03
2023-05-09T10:36:10.306Z,101456.69
2023-05-09T10:38:36.586Z,101477.16
2023-05-09T10:41:02.916Z,101462.06
2023-05-09T10:43:29.480Z,101460.22
2023-05-09T10:45:55.837Z,101475.53
2023-05-09T10:48:22.110Z,101457.75
2023-05-09T10:50:48.386Z,101462.06
2023-05-09T10:53:14.636Z,101455.66
2023-05-09T10:55:40.972Z,101448.84
2023-05-09T10:58:07.244Z,101439.53
2023-05-09T11:00:33.711Z,101435.56
2023-05-09T11:03:00.069Z,101443.88
2023-05-09T11:05:26.392Z,101435.81
2023-05-09T11:07:52.650Z,101443.88
2023-05-09T11:10:18.977Z,101443.03
2023-05-09T11:12:45.275Z,101438.50
2023-05-09T11:15:11.645Z,101433.13
2023-05-09T11:17:37.998Z,101433.94
2023-05-09T11:20:04.286Z,101432.88
2023-05-09T11:22:30.646Z,101414.91
2023-05-09T11:24:57.034Z,101397.13
2023-05-09T11:27:23.286Z,101411.38
2023-05-09T11:29:49.584Z,101400.03
2023-05-09T11:32:15.892Z,101396.06
2023-05-09T11:34:42.194Z,101390.91
2023-05-09T11:37:08.424Z,101390.09
2023-05-09T11:39:37.378Z,101389.88
2023-05-09T11:42:03.601Z,101360.53
2023-05-09T11:44:29.880Z,101362.38
2023-05-09T11:46:56.142Z,101382.03
2023-05-09T11:49:22.439Z,101379.09
2023-05-09T11:51:48.706Z,101372.72
2023-05-09T11:54:15.147Z,101371.03
2023-05-09T11:56:41.562Z,101361.13
2023-05-09T11:59:07.903Z,101337.97
2023-05-09T12:01:34.185Z,101374.56
2023-05-09T12:04:00.600Z,101352.00
2023-05-09T12:06:27.268Z,101342.28
2023-05-09T12:08:53.488Z,101334.22
2023-05-09T12:11:19.781Z,101333.38
2023-05-09T12:13:46.023Z,101326.16
2023-05-09T12:16:12.285Z,101319.94
2023-05-09T12:18:38.582Z,101337.97
2023-05-09T12:21:04.843Z,101321.81
2023-05-09T12:23:31.107Z,101324.53
2023-05-09T12:25:58.559Z,101328.84
2023-05-09T12:28:24.793Z,101317.25
2023-05-09T12:30:51.069Z,101311.06
2023-05-09T12:33:17.327Z,101293.28
2023-05-09T12:35:43.666Z,101295.97
2023-05-09T12:38:10.043Z,101298.88
2023-05-09T12:40:36.272Z,101288.94
2023-05-09T12:43:02.588Z,101292.66
2023-05-09T12:45:29.118Z,101287.28
2023-05-09T12:47:56.103Z,101283.78
2023-05-09T12:50:22.526Z,101277.59
2023-05-09T12:53:02.848Z,101278.63
2023-05-09T12:55:30.784Z,101266.00
2023-05-09T12:57:57.132Z,101252.75
2023-05-09T13:00:23.694Z,101263.31
2023-05-09T13:02:50.042Z,101259.81
2023-05-09T13:05:17.250Z,101257.13
2023-05-09T13:07:44.121Z,101258.13
2023-05-09T13:10:11.934Z,101247.38
2023-05-09T13:12:39.611Z,101250.06
2023-05-09T13:15:05.860Z,101241.00
2023-05-09T13:17:32.312Z,101242.84
2023-05-09T13:20:00.222Z,101242.00
2023-05-09T13:22:27.178Z,101230.22
2023-05-09T13:24:53.549Z,101225.88
2023-05-09T13:27:19.824Z,101225.66
2023-05-09T13:29:46.332Z,101213.25
2023-05-09T13:32:12.610Z,101216.78
2023-05-09T13:34:39.012Z,101212.22
2023-05-09T13:37:05.240Z,101212.22
2023-05-09T13:39:31.692Z,101197.13
2023-05-09T13:41:57.946Z,101201.47
2023-05-09T13:44:24.177Z,101187.22
2023-05-09T13:46:50.681Z,101181.84
2023-05-09T13:49:16.973Z,101184.53
2023-05-09T13:51:43.263Z,101177.25
2023-05-09T13:54:10.454Z,101179.16
2023-05-09T13:56:37.064Z,101168.38
2023-05-09T13:59:03.369Z,101159.50
2023-05-09T14:01:29.729Z,101160.31
2023-05-09T14:03:56.204Z,101159.50
2023-05-09T14:06:22.708Z,101164.88
2023-05-09T14:08:49.548Z,101161.97
2023-05-09T14:11:16.676Z,101156.59
2023-05-09T14:13:42.914Z,101159.28
2023-05-09T14:16:09.205Z,101145.84
2023-05-09T14:18:35.494Z,101159.28
2023-05-09T14:21:01.890Z,101137.75
2023-05-09T14:23:28.128Z,101133.19
2023-05-09T14:25:54.370Z,101125.97
2023-05-09T14:28:21.585Z,101134.84
2023-05-09T14:30:47.898Z,101122.44
2023-05-09T14:33:14.217Z,101131.34
2023-05-09T14:35:41.630Z,101124.91
2023-05-09T14:38:08.103Z,101125.75
2023-05-09T14:40:36.183Z,101112.50
2023-05-09T14:43:02.922Z,101112.50
2023-05-09T14:45:29.287Z,101108.78
2023-05-09T14:47:55.547Z,101104.22
2023-05-09T14:50:21.931Z,101106.09
2023-05-09T14:52:49.876Z,101113.94
2023-05-09T14:55:16.196Z,101100.50
2023-05-09T14:57:42.463Z,101100.50
2023-05-09T15:00:20.398Z,101104.81
2023-05-09T15:02:47.899Z,101093.25
2023-05-09T15:05:14.186Z,101093.25
2023-05-09T15:07:40.671Z,101079.59
2023-05-09T15:10:06.964Z,101084.97
2023-05-09T15:12:33.231Z,101079.59
2023-05-09T15:14:59.498Z,101077.94
2023-05-09T15:17:25.803Z,101077.72
2023-05-09T15:19:52.932Z,101073.16
2023-05-09T15:22:22.124Z,101065.09
2023-05-09T15:24:48.872Z,101052.47
2023-05-09T15:27:15.114Z,101054.13
2023-05-09T15:29:41.897Z,101045.00
2023-05-09T15:32:08.442Z,101046.88
2023-05-09T15:34:34.710Z,101040.47
2023-05-09T15:37:00.966Z,101037.78
2023-05-09T15:39:27.207Z,101027.03
2023-05-09T15:41:53.536Z,101027.81
2023-05-09T15:44:19.883Z,101025.97
2023-05-09T15:46:46.196Z,101015.22
2023-05-09T15:49:13.068Z,101018.69
2023-05-09T15:51:39.330Z,101022.22
2023-05-09T15:54:05.573Z,101013.09
2023-05-09T15:56:32.750Z,101009.63
2023-05-09T15:59:00.234Z,101001.56
2023-05-09T16:01:26.593Z,101002.34
2023-05-09T16:03:53.140Z,101006.47
2023-05-09T16:06:19.499Z,100996.97
2023-05-09T16:08:45.834Z,100994.06
2023-05-09T16:11:13.497Z,100987.63
2023-05-09T16:13:39.846Z,100980.63
2023-05-09T16:16:06.129Z,100988.69
2023-05-09T16:18:32.541Z,100982.25
2023-05-09T16:20:58.801Z,100976.66
2023-05-09T16:23:25.072Z,100975.59
2023-05-09T16:25:51.319Z,100979.75
2023-05-09T16:28:17.578Z,100971.06
2023-05-09T16:30:43.884Z,100975.38
2023-05-09T16:33:12.153Z,100964.69
2023-05-09T16:35:38.398Z,100963.09
2023-05-09T16:38:04.802Z,100968.78
2023-05-09T16:40:31.553Z,100967.09
2023-05-09T16:42:57.942Z,100966.66
2023-05-09T16:45:24.226Z,100965.81
2023-05-09T16:47:50.523Z,100964.19
2023-05-09T16:50:17.772Z,100954.53
2023-05-09T16:52:44.131Z,100959.91
2023-05-09T16:55:10.456Z,100964.63
2023-05-09T16:57:36.777Z,100959.25
2023-05-09T17:00:03.825Z,100957.53
2023-05-09T17:02:30.152Z,100948.16
2023-05-09T17:04:57.436Z,100961.16
2023-05-09T17:07:23.755Z,100952.06
2023-05-09T17:09:50.031Z,100962.56
2023-05-09T17:12:16.292Z,100946.19
2023-05-09T17:14:42.549Z,100945.75
2023-05-09T17:17:08.808Z,100946.56
2023-05-09T17:19:35.184Z,100947.38
2023-05-09T17:22:01.421Z,100945.75
2023-05-09T17:24:27.677Z,100934.97
2023-05-09T17:26:55.383Z,100938.72
2023-05-09T17:32:12.302Z,100946.78
2023-05-09T17:34:38.574Z,100949.94
2023-05-09T17:37:04.867Z,100940.22
2023-05-09T17:39:31.152Z,100941.63
2023-05-09T17:41:57.505Z,100936.47
2023-05-09T17:44:23.774Z,100935.66
2023-05-09T17:46:50.017Z,100936.69
2023-05-09T17:49:16.370Z,100937.53
2023-05-09T17:51:43.240Z,100934.22
2023-05-09T17:54:09.525Z,100934.84
2023-05-09T17:56:35.773Z,100935.91
2023-05-09T17:59:02.026Z,100932.38
2023-05-09T18:01:28.401Z,100932.03
2023-05-09T18:03:54.735Z,100930.75
2023-05-09T18:06:21.110Z,100930.13
2023-05-09T18:08:47.368Z,100930.75
2023-05-09T18:11:13.665Z,100922.88
2023-05-09T18:13:39.929Z,100927.22
2023-05-09T18:16:06.244Z,100924.31
2023-05-09T18:18:32.498Z,100922.44
2023-05-09T18:20:58.813Z,100918.09
2023-05-09T18:23:25.087Z,100923.72
2023-05-09T18:25:52.202Z,100919.97
2023-05-09T18:28:19.122Z,100922.66
2023-05-09T18:30:45.471Z,100922.44
2023-05-09T18:33:12.138Z,100919.75
2023-05-09T18:35:38.417Z,100918.34
2023-05-09T18:38:04.662Z,100918.09
2023-05-09T18:40:31.468Z,100925.94
2023-05-09T18:42:57.737Z,100922.44
2023-05-09T18:45:23.983Z,100922.66
2023-05-09T18:47:50.333Z,100922.19
2023-05-09T18:50:16.827Z,100923.84
2023-05-09T18:52:43.273Z,100925.34
2023-05-09T18:55:09.507Z,100922.44
2023-05-09T18:57:35.906Z,100925.84
2023-05-09T19:00:02.191Z,100924.94
2023-05-09T19:02:28.589Z,100921.91
2023-05-09T19:04:54.814Z,100919.94
2023-05-09T19:07:21.094Z,100924.97
2023-05-09T19:09:47.338Z,100919.25
2023-05-09T19:12:13.610Z,100920.34
2023-05-09T19:14:40.190Z,100913.81
2023-05-09T19:17:06.511Z,100919.91
2023-05-09T19:19:32.842Z,100909.84
2023-05-09T19:21:59.095Z,100914.06
2023-05-09T19:24:25.341Z,100909.38
2023-05-09T19:26:51.621Z,100907.59
2023-05-09T19:29:18.009Z,100904.44
2023-05-09T19:31:44.470Z,100900.44
2023-05-09T19:34:10.857Z,100898.06
2023-05-09T19:36:37.089Z,100906.53
2023-05-09T19:39:03.862Z,100899.84
2023-05-09T19:41:30.108Z,100903.94
2023-05-09T19:43:56.381Z,100900.53
2023-05-09T19:46:22.790Z,100898.66
2023-05-09T19:48:49.420Z,100899.00
2023-05-09T19:51:15.666Z,100902.28
2023-05-09T19:53:41.941Z,100896.06
2023-05-09T19:56:08.461Z,100889.38
2023-05-09T19:58:35.960Z,100891.13
2023-05-09T20:01:02.249Z,100892.84
2023-05-09T20:03:28.564Z,100890.28
2023-05-09T20:05:54.840Z,100882.31
2023-05-09T20:08:22.398Z,100895.44
2023-05-09T20:10:48.944Z,100891.16
2023-05-09T20:13:15.278Z,100899.94
2023-05-09T20:15:41.561Z,100889.25
2023-05-09T20:18:07.821Z,100881.00
2023-05-09T20:20:34.126Z,100876.53
2023-05-09T20:23:00.412Z,100876.06
2023-05-09T20:25:26.686Z,100879.66
2023-05-09T20:27:53.128Z,100877.84
2023-05-09T20:30:19.386Z,100877.38
2023-05-09T20:32:45.708Z,100871.25
2023-05-09T20:35:11.989Z,100872.66
2023-05-09T20:37:38.326Z,100870.25
2023-05-09T20:40:04.569Z,100868.72
2023-05-09T20:42:30.907Z,100864.69
2023-05-09T20:44:57.229Z,100867.72
2023-05-09T20:47:23.568Z,100858.34
2023-05-09T20:49:49.860Z,100854.34
2023-05-09T20:52:16.141Z,100852.81
2023-05-09T20:54:42.434Z,100857.94
2023-05-09T20:57:10.149Z,100850.19
2023-05-09T20:59:36.455Z,100842.38
2023-05-09T21:02:02.868Z,100841.31
2023-05-09T21:04:29.264Z,100840.81
2023-05-09T21:06:55.496Z,100832.47
2023-05-09T21:09:21.753Z,100839.28
2023-05-09T21:11:48.007Z,100837.13
2023-05-09T21:14:14.238Z,100837.94
2023-05-09T21:16:40.601Z,100832.31
2023-05-09T21:19:06.940Z,100828.53
2023-05-09T21:21:33.183Z,100838.28
2023-05-09T21:23:59.514Z,100829.59
2023-05-09T21:26:26.063Z,100833.38
2023-05-09T21:28:52.496Z,100834.69
2023-05-09T21:31:18.762Z,100827.91
2023-05-09T21:33:45.030Z,100831.66
2023-05-09T21:36:11.352Z,100815.69
2023-05-09T21:38:37.670Z,100825.69
2023-05-09T21:41:03.938Z,100812.41
2023-05-09T21:43:30.185Z,100827.00
2023-05-09T21:45:56.452Z,100822.69
2023-05-09T21:48:22.744Z,100820.22
2023-05-09T21:50:49.011Z,100819.16
2023-05-09T21:53:15.636Z,100819.16
2023-05-09T21:55:41.870Z,100818.31
2023-05-09T21:58:08.120Z,100814.47
2023-05-09T22:00:34.437Z,100806.88
2023-05-09T22:03:01.138Z,100811.94
2023-05-09T22:05:27.925Z,100810.75
2023-05-09T22:07:54.172Z,100813.13
2023-05-09T22:10:20.500Z,100801.19
2023-05-09T22:12:46.889Z,100804.38
2023-05-09T22:15:13.253Z,100804.31
2023-05-09T22:17:40.312Z,100811.25
2023-05-09T22:20:06.619Z,100806.09
2023-05-09T22:22:32.869Z,100815.50
2023-05-09T22:24:59.152Z,100810.34
2023-05-09T22:27:25.590Z,100803.56
2023-05-09T22:29:51.889Z,100805.94
2023-05-09T22:32:18.205Z,100795.38
2023-05-09T22:34:44.451Z,100809.13
2023-05-09T22:37:10.735Z,100798.56
2023-05-09T22:39:37.244Z,100798.00
2023-05-09T22:42:03.998Z,100794.47
2023-05-09T22:44:30.314Z,100796.59
2023-05-09T22:46:56.597Z,100796.00
2023-05-09T22:49:22.830Z,100795.47
2023-05-09T22:51:49.175Z,100795.47
2023-05-09T22:54:15.420Z,100795.94
2023-05-09T22:56:41.793Z,100791.03
2023-05-09T22:59:08.038Z,100788.34
2023-05-09T23:01:34.356Z,100786.69
2023-05-09T23:04:01.058Z,100791.53
2023-05-09T23:06:27.367Z,100783.44
2023-05-09T23:08:54.162Z,100783.91
2023-05-09T23:11:20.510Z,100780.38
2023-05-09T23:13:46.917Z,100784.38
2023-05-09T23:16:13.226Z,100778.19
2023-05-09T23:18:39.518Z,100775.72
2023-05-09T23:21:05.872Z,100776.19
2023-05-09T23:23:32.160Z,100768.34
2023-05-09T23:25:58.472Z,100770.25
2023-05-09T23:28:24.831Z,100765.91
2023-05-09T23:30:51.615Z,100767.53
2023-05-09T23:33:17.911Z,100768.84
2023-05-09T23:35:44.558Z,100767.78
2023-05-09T23:38:12.913Z,100767.47
2023-05-09T23:40:39.190Z,100761.22
2023-05-09T23:43:05.480Z,100757.16
2023-05-09T23:45:31.831Z,100752.56
2023-05-09T23:47:58.186Z,100757.38
2023-05-09T23:50:24.574Z,100750.59
2023-05-09T23:52:50.821Z,100751.66
2023-05-09T23:55:17.116Z,100752.69
2023-05-09T23:57:45.208Z,100752.97
